Terminal Aerodrome Forecast
Issued by NWS

Home | Current Version | Previous Version | Text Only | Print | Product List | Glossary On
Versions: 1 2 3 4 5 6 7 8 9 10 11 12 13 14 15 16 17
000
FTAK31 PANC 061124
TAFADU
TAF
PADU 061124Z 0612/0712 31009KT P6SM -SHRA SCT025 BKN035
     FM061800 33012G18KT P6SM VCSH SCT035 BKN050
     FM070400 33012G20KT P6SM SCT050
      AMD LTD TO CLD VIS AND WX TIL 061600=

USA.gov is the U.S. government's official web portal to all federal, state and local government web resources and services.